sensor_id;sensor_type;location;lat;lon;timestamp;pressure;altitude;pressure_sealevel;temperature;humidity
68580;BME280;55555;52.136;5.424;2022-08-23T00:01:45;101488.25;;;17.83;78.33
68580;BME280;55555;52.136;5.424;2022-08-23T00:04:20;101488.50;;;17.81;78.16
68580;BME280;55555;52.136;5.424;2022-08-23T00:07:01;101488.44;;;17.76;78.47
68580;BME280;55555;52.136;5.424;2022-08-23T00:09:30;101484.72;;;17.66;78.75
68580;BME280;55555;52.136;5.424;2022-08-23T00:12:17;101486.84;;;17.64;78.49
68580;BME280;55555;52.136;5.424;2022-08-23T00:14:50;101484.09;;;17.64;77.99
68580;BME280;55555;52.136;5.424;2022-08-23T00:17:19;101481.84;;;17.44;79.29
68580;BME280;55555;52.136;5.424;2022-08-23T00:20:02;101479.38;;;17.42;79.29
68580;BME280;55555;52.136;5.424;2022-08-23T00:22:31;101478.78;;;17.40;79.60
68580;BME280;55555;52.136;5.424;2022-08-23T00:24:58;101478.09;;;17.33;79.94
68580;BME280;55555;52.136;5.424;2022-08-23T00:27:26;101481.06;;;17.32;79.27
68580;BME280;55555;52.136;5.424;2022-08-23T00:29:54;101481.38;;;17.18;80.50
68580;BME280;55555;52.136;5.424;2022-08-23T00:32:27;101482.53;;;17.23;80.08
68580;BME280;55555;52.136;5.424;2022-08-23T00:34:55;101481.94;;;17.20;79.86
68580;BME280;55555;52.136;5.424;2022-08-23T00:37:24;101483.78;;;17.15;80.28
68580;BME280;55555;52.136;5.424;2022-08-23T00:39:52;101483.19;;;17.13;80.31
68580;BME280;55555;52.136;5.424;2022-08-23T00:45:22;101475.66;;;17.03;80.41
68580;BME280;55555;52.136;5.424;2022-08-23T00:48:11;101482.03;;;17.09;80.22
68580;BME280;55555;52.136;5.424;2022-08-23T00:50:44;101472.19;;;17.08;80.42
68580;BME280;55555;52.136;5.424;2022-08-23T00:53:24;101474.91;;;17.08;80.40
68580;BME280;55555;52.136;5.424;2022-08-23T00:56:01;101471.63;;;17.06;80.91
68580;BME280;55555;52.136;5.424;2022-08-23T00:58:29;101491.16;;;17.03;81.34
68580;BME280;55555;52.136;5.424;2022-08-23T01:00:58;101482.88;;;16.98;81.71
68580;BME280;55555;52.136;5.424;2022-08-23T01:03:30;101483.56;;;17.05;81.25
68580;BME280;55555;52.136;5.424;2022-08-23T01:08:55;101490.09;;;17.04;82.21
68580;BME280;55555;52.136;5.424;2022-08-23T01:11:33;101483.34;;;17.06;81.68
68580;BME280;55555;52.136;5.424;2022-08-23T01:14:18;101483.19;;;17.13;81.41
68580;BME280;55555;52.136;5.424;2022-08-23T01:17:04;101484.16;;;17.07;81.97
68580;BME280;55555;52.136;5.424;2022-08-23T01:19:43;101484.63;;;17.04;82.23
68580;BME280;55555;52.136;5.424;2022-08-23T01:22:34;101482.94;;;17.14;81.53
68580;BME280;55555;52.136;5.424;2022-08-23T01:25:15;101476.75;;;17.19;81.22
68580;BME280;55555;52.136;5.424;2022-08-23T01:27:44;101476.75;;;17.19;81.82
68580;BME280;55555;52.136;5.424;2022-08-23T01:30:13;101482.88;;;17.26;81.25
68580;BME280;55555;52.136;5.424;2022-08-23T01:32:47;101468.19;;;17.27;81.09
68580;BME280;55555;52.136;5.424;2022-08-23T01:35:30;101476.69;;;17.31;81.19
68580;BME280;55555;52.136;5.424;2022-08-23T01:38:02;101475.78;;;17.25;81.55
68580;BME280;55555;52.136;5.424;2022-08-23T01:40:30;101483.34;;;17.23;81.88
68580;BME280;55555;52.136;5.424;2022-08-23T01:42:58;101479.22;;;17.20;82.21
68580;BME280;55555;52.136;5.424;2022-08-23T01:45:28;101481.69;;;17.22;82.34
68580;BME280;55555;52.136;5.424;2022-08-23T01:47:55;101482.53;;;17.23;82.46
68580;BME280;55555;52.136;5.424;2022-08-23T01:50:24;101480.88;;;17.21;81.75
68580;BME280;55555;52.136;5.424;2022-08-23T01:52:51;101483.44;;;17.11;82.62
68580;BME280;55555;52.136;5.424;2022-08-23T01:55:19;101483.19;;;17.13;82.05
68580;BME280;55555;52.136;5.424;2022-08-23T01:57:50;101476.91;;;17.12;81.46
68580;BME280;55555;52.136;5.424;2022-08-23T02:00:22;101478.00;;;17.11;81.33
68580;BME280;55555;52.136;5.424;2022-08-23T02:02:51;101479.88;;;17.11;81.72
68580;BME280;55555;52.136;5.424;2022-08-23T02:05:18;101482.41;;;17.01;82.21
68580;BME280;55555;52.136;5.424;2022-08-23T02:07:46;101483.00;;;17.03;81.67
68580;BME280;55555;52.136;5.424;2022-08-23T02:10:14;101485.13;;;17.01;81.88
68580;BME280;55555;52.136;5.424;2022-08-23T02:12:42;101486.72;;;16.85;83.38
68580;BME280;55555;52.136;5.424;2022-08-23T02:15:09;101488.72;;;16.90;82.21
68580;BME280;55555;52.136;5.424;2022-08-23T02:17:36;101487.63;;;16.91;82.21
68580;BME280;55555;52.136;5.424;2022-08-23T02:20:04;101476.16;;;16.88;81.91
68580;BME280;55555;52.136;5.424;2022-08-23T02:22:32;101472.84;;;16.86;81.78
68580;BME280;55555;52.136;5.424;2022-08-23T02:24:59;101469.53;;;16.84;81.98
68580;BME280;55555;52.136;5.424;2022-08-23T02:27:26;101477.59;;;16.79;82.38
68580;BME280;55555;52.136;5.424;2022-08-23T02:29:53;101476.44;;;16.75;82.29
68580;BME280;55555;52.136;5.424;2022-08-23T02:32:21;101473.50;;;16.65;82.92
68580;BME280;55555;52.136;5.424;2022-08-23T02:34:52;101474.56;;;16.64;82.66
68580;BME280;55555;52.136;5.424;2022-08-23T02:37:31;101475.28;;;16.60;83.19
68580;BME280;55555;52.136;5.424;2022-08-23T02:39:58;101471.25;;;16.62;82.77
68580;BME280;55555;52.136;5.424;2022-08-23T02:42:25;101472.31;;;16.61;82.68
68580;BME280;55555;52.136;5.424;2022-08-23T02:44:52;101471.97;;;16.58;82.74
68580;BME280;55555;52.136;5.424;2022-08-23T02:47:20;101474.69;;;16.58;82.63
68580;BME280;55555;52.136;5.424;2022-08-23T02:49:48;101477.66;;;16.56;82.55
68580;BME280;55555;52.136;5.424;2022-08-23T02:52:16;101482.84;;;16.46;83.39
68580;BME280;55555;52.136;5.424;2022-08-23T02:54:43;101483.22;;;16.49;82.61
68580;BME280;55555;52.136;5.424;2022-08-23T02:57:10;101489.47;;;16.50;83.10
68580;BME280;55555;52.136;5.424;2022-08-23T02:59:38;101483.56;;;16.53;82.76
68580;BME280;55555;52.136;5.424;2022-08-23T03:02:05;101486.75;;;16.50;83.28
68580;BME280;55555;52.136;5.424;2022-08-23T03:04:32;101496.00;;;16.49;83.61
68580;BME280;55555;52.136;5.424;2022-08-23T03:06:59;101494.91;;;16.50;84.10
68580;BME280;55555;52.136;5.424;2022-08-23T03:09:26;101492.78;;;16.52;83.86
68580;BME280;55555;52.136;5.424;2022-08-23T03:11:53;101492.91;;;16.57;83.88
68580;BME280;55555;52.136;5.424;2022-08-23T03:14:20;101505.19;;;16.60;84.08
68580;BME280;55555;52.136;5.424;2022-08-23T03:16:47;101497.97;;;16.65;84.10
68580;BME280;55555;52.136;5.424;2022-08-23T03:19:14;101501.28;;;16.67;84.01
68580;BME280;55555;52.136;5.424;2022-08-23T03:21:41;101488.63;;;16.73;84.09
68580;BME280;55555;52.136;5.424;2022-08-23T03:24:09;101500.34;;;16.73;84.22
68580;BME280;55555;52.136;5.424;2022-08-23T03:26:40;101511.69;;;16.70;85.39
68580;BME280;55555;52.136;5.424;2022-08-23T03:29:08;101513.94;;;16.73;85.21
68580;BME280;55555;52.136;5.424;2022-08-23T03:31:35;101524.34;;;16.76;85.24
68580;BME280;55555;52.136;5.424;2022-08-23T03:34:03;101526.59;;;16.79;84.55
68580;BME280;55555;52.136;5.424;2022-08-23T03:36:31;101529.06;;;16.81;84.73
68580;BME280;55555;52.136;5.424;2022-08-23T03:38:59;101522.69;;;16.87;83.61
68580;BME280;55555;52.136;5.424;2022-08-23T03:41:26;101514.84;;;16.91;83.46
68580;BME280;55555;52.136;5.424;2022-08-23T03:43:53;101525.16;;;16.88;83.69
68580;BME280;55555;52.136;5.424;2022-08-23T03:46:20;101520.41;;;16.96;82.59
68580;BME280;55555;52.136;5.424;2022-08-23T03:48:56;101520.41;;;16.96;83.11
68580;BME280;55555;52.136;5.424;2022-08-23T03:51:27;101526.94;;;16.95;83.72
68580;BME280;55555;52.136;5.424;2022-08-23T03:53:55;101514.47;;;16.99;83.39
68580;BME280;55555;52.136;5.424;2022-08-23T03:59:03;101528.69;;;17.01;83.45
68580;BME280;55555;52.136;5.424;2022-08-23T04:01:32;101525.38;;;16.99;84.06
68580;BME280;55555;52.136;5.424;2022-08-23T04:03:59;101523.59;;;17.04;83.21
68580;BME280;55555;52.136;5.424;2022-08-23T04:06:27;101531.16;;;17.02;84.51
68580;BME280;55555;52.136;5.424;2022-08-23T04:08:55;101533.50;;;17.10;83.02
68580;BME280;55555;52.136;5.424;2022-08-23T04:11:23;101527.13;;;17.05;83.93
68580;BME280;55555;52.136;5.424;2022-08-23T04:13:50;101528.78;;;17.06;84.19
68580;BME280;55555;52.136;5.424;2022-08-23T04:16:18;101528.66;;;17.12;82.89
68580;BME280;55555;52.136;5.424;2022-08-23T04:18:45;101527.81;;;17.12;83.63
68580;BME280;55555;52.136;5.424;2022-08-23T04:21:16;101527.91;;;17.17;82.63
68580;BME280;55555;52.136;5.424;2022-08-23T04:23:44;101528.41;;;17.14;83.58
68580;BME280;55555;52.136;5.424;2022-08-23T04:26:11;101532.78;;;17.15;83.35
68580;BME280;55555;52.136;5.424;2022-08-23T04:28:38;101533.84;;;17.14;83.78
68580;BME280;55555;52.136;5.424;2022-08-23T04:31:06;101534.16;;;17.17;83.02
68580;BME280;55555;52.136;5.424;2022-08-23T04:33:33;101532.03;;;17.19;82.74
68580;BME280;55555;52.136;5.424;2022-08-23T04:36:06;101545.06;;;17.17;83.13
68580;BME280;55555;52.136;5.424;2022-08-23T04:38:33;101533.69;;;17.20;82.53
68580;BME280;55555;52.136;5.424;2022-08-23T04:41:00;101538.31;;;17.20;82.95
68580;BME280;55555;52.136;5.424;2022-08-23T04:43:45;101532.38;;;17.23;82.68
68580;BME280;55555;52.136;5.424;2022-08-23T04:46:13;101530.97;;;17.20;83.15
68580;BME280;55555;52.136;5.424;2022-08-23T04:48:44;101532.38;;;17.23;82.78
68580;BME280;55555;52.136;5.424;2022-08-23T04:51:13;101534.75;;;17.19;83.49
68580;BME280;55555;52.136;5.424;2022-08-23T04:53:40;101533.69;;;17.20;82.85
68580;BME280;55555;52.136;5.424;2022-08-23T04:56:08;101539.00;;;17.27;82.80
68580;BME280;55555;52.136;5.424;2022-08-23T04:58:36;101537.69;;;17.30;82.47
68580;BME280;55555;52.136;5.424;2022-08-23T05:01:06;101546.44;;;17.32;82.43
68580;BME280;55555;52.136;5.424;2022-08-23T05:03:36;101545.63;;;17.31;82.76
68580;BME280;55555;52.136;5.424;2022-08-23T05:06:04;101557.09;;;17.33;83.08
68580;BME280;55555;52.136;5.424;2022-08-23T05:08:31;101552.25;;;17.35;83.01
68580;BME280;55555;52.136;5.424;2022-08-23T05:11:01;101549.03;;;17.38;83.33
68580;BME280;55555;52.136;5.424;2022-08-23T05:13:29;101546.16;;;17.45;82.17
68580;BME280;55555;52.136;5.424;2022-08-23T05:16:00;101541.53;;;17.45;82.32
68580;BME280;55555;52.136;5.424;2022-08-23T05:18:27;101553.03;;;17.47;82.45
68580;BME280;55555;52.136;5.424;2022-08-23T05:20:54;101552.78;;;17.49;82.50
68580;BME280;55555;52.136;5.424;2022-08-23T05:23:22;101558.56;;;17.52;82.26
68580;BME280;55555;52.136;5.424;2022-08-23T05:25:58;101568.66;;;17.52;82.26
68580;BME280;55555;52.136;5.424;2022-08-23T05:28:33;101562.72;;;17.55;82.82
68580;BME280;55555;52.136;5.424;2022-08-23T05:31:07;101566.34;;;17.61;82.37
68580;BME280;55555;52.136;5.424;2022-08-23T05:33:39;101571.56;;;17.62;82.43
68580;BME280;55555;52.136;5.424;2022-08-23T05:36:09;101568.13;;;17.67;82.43
68580;BME280;55555;52.136;5.424;2022-08-23T05:38:38;101572.00;;;17.71;82.67
68580;BME280;55555;52.136;5.424;2022-08-23T05:41:05;101571.03;;;17.77;81.89
68580;BME280;55555;52.136;5.424;2022-08-23T05:43:33;101567.31;;;17.83;82.46
68580;BME280;55555;52.136;5.424;2022-08-23T05:46:16;101571.69;;;17.84;81.58
68580;BME280;55555;52.136;5.424;2022-08-23T05:48:48;101569.41;;;17.93;81.04
68580;BME280;55555;52.136;5.424;2022-08-23T05:51:19;101575.53;;;18.00;80.77
68580;BME280;55555;52.136;5.424;2022-08-23T05:53:51;101575.88;;;18.03;81.26
68580;BME280;55555;52.136;5.424;2022-08-23T05:56:23;101568.34;;;18.10;79.98
68580;BME280;55555;52.136;5.424;2022-08-23T05:59:03;101572.81;;;18.16;79.67
68580;BME280;55555;52.136;5.424;2022-08-23T06:01:38;101579.97;;;18.23;80.16
68580;BME280;55555;52.136;5.424;2022-08-23T06:04:07;101572.72;;;18.28;80.18
68580;BME280;55555;52.136;5.424;2022-08-23T06:06:38;101586.19;;;18.35;78.95
68580;BME280;55555;52.136;5.424;2022-08-23T06:09:09;101582.47;;;18.41;79.34
68580;BME280;55555;52.136;5.424;2022-08-23T06:11:43;101578.75;;;18.47;78.15
68580;BME280;55555;52.136;5.424;2022-08-23T06:14:11;101574.44;;;18.51;78.69
68580;BME280;55555;52.136;5.424;2022-08-23T06:16:40;101580.47;;;18.53;78.56
68580;BME280;55555;52.136;5.424;2022-08-23T06:19:10;101583.91;;;18.60;78.20
68580;BME280;55555;52.136;5.424;2022-08-23T06:21:37;101587.28;;;18.67;77.94
68580;BME280;55555;52.136;5.424;2022-08-23T06:24:05;101591.09;;;18.66;77.41
68580;BME280;55555;52.136;5.424;2022-08-23T06:26:35;101589.56;;;18.75;78.40
68580;BME280;55555;52.136;5.424;2022-08-23T06:29:08;101587.22;;;18.84;77.60
68580;BME280;55555;52.136;5.424;2022-08-23T06:31:44;101582.41;;;18.91;77.45
68580;BME280;55555;52.136;5.424;2022-08-23T06:36:57;101582.28;;;19.03;76.62
68580;BME280;55555;52.136;5.424;2022-08-23T06:39:28;101584.19;;;19.02;77.71
68580;BME280;55555;52.136;5.424;2022-08-23T06:42:13;101577.53;;;19.15;77.44
68580;BME280;55555;52.136;5.424;2022-08-23T06:45:01;101583.31;;;19.18;76.56
68580;BME280;55555;52.136;5.424;2022-08-23T06:47:29;101579.81;;;19.23;78.27
68580;BME280;55555;52.136;5.424;2022-08-23T06:49:56;101584.25;;;19.29;77.06
68580;BME280;55555;52.136;5.424;2022-08-23T06:52:25;101588.19;;;19.38;77.57
68580;BME280;55555;52.136;5.424;2022-08-23T06:54:54;101584.44;;;19.44;77.46
68580;BME280;55555;52.136;5.424;2022-08-23T06:57:23;101588.88;;;19.50;77.49
68580;BME280;55555;52.136;5.424;2022-08-23T06:59:50;101589.84;;;19.61;76.91
68580;BME280;55555;52.136;5.424;2022-08-23T07:02:17;101593.47;;;19.67;76.15
68580;BME280;55555;52.136;5.424;2022-08-23T07:04:44;101586.66;;;19.69;76.60
68580;BME280;55555;52.136;5.424;2022-08-23T07:07:11;101590.28;;;19.80;76.00
68580;BME280;55555;52.136;5.424;2022-08-23T07:09:39;101601.28;;;19.85;76.25
68580;BME280;55555;52.136;5.424;2022-08-23T07:12:06;101594.84;;;19.96;76.80
68580;BME280;55555;52.136;5.424;2022-08-23T07:14:35;101599.84;;;20.04;76.46
68580;BME280;55555;52.136;5.424;2022-08-23T07:17:03;101601.53;;;20.10;75.72
68580;BME280;55555;52.136;5.424;2022-08-23T07:19:32;101606.50;;;20.13;75.44
68580;BME280;55555;52.136;5.424;2022-08-23T07:22:02;101602.22;;;20.28;75.06
68580;BME280;55555;52.136;5.424;2022-08-23T07:24:31;101595.38;;;20.30;76.26
68580;BME280;55555;52.136;5.424;2022-08-23T07:27:00;101608.28;;;20.35;75.41
68580;BME280;55555;52.136;5.424;2022-08-23T07:29:33;101609.84;;;20.53;75.24
68580;BME280;55555;52.136;5.424;2022-08-23T07:32:02;101609.13;;;20.67;74.14
68580;BME280;55555;52.136;5.424;2022-08-23T07:34:30;101608.97;;;20.89;73.77
68580;BME280;55555;52.136;5.424;2022-08-23T07:36:57;101606.19;;;21.26;72.80
68580;BME280;55555;52.136;5.424;2022-08-23T07:39:24;101611.75;;;21.52;70.95
68580;BME280;55555;52.136;5.424;2022-08-23T07:41:51;101606.31;;;21.77;69.83
68580;BME280;55555;52.136;5.424;2022-08-23T07:44:19;101614.34;;;22.04;69.72
68580;BME280;55555;52.136;5.424;2022-08-23T07:46:53;101606.91;;;21.99;69.43
68580;BME280;55555;52.136;5.424;2022-08-23T07:49:20;101607.75;;;22.40;68.02
68580;BME280;55555;52.136;5.424;2022-08-23T07:51:55;101610.78;;;22.44;67.76
68580;BME280;55555;52.136;5.424;2022-08-23T07:54:24;101616.22;;;22.90;67.28
68580;BME280;55555;52.136;5.424;2022-08-23T07:56:51;101620.31;;;23.02;65.88
68580;BME280;55555;52.136;5.424;2022-08-23T07:59:18;101624.69;;;23.08;64.60
68580;BME280;55555;52.136;5.424;2022-08-23T08:01:45;101621.56;;;23.35;64.44
68580;BME280;55555;52.136;5.424;2022-08-23T08:04:12;101626.59;;;23.13;64.70
68580;BME280;55555;52.136;5.424;2022-08-23T08:06:45;101622.78;;;23.68;64.33
68580;BME280;55555;52.136;5.424;2022-08-23T08:09:33;101622.50;;;23.75;63.56
68580;BME280;55555;52.136;5.424;2022-08-23T08:12:00;101632.88;;;23.88;64.23
68580;BME280;55555;52.136;5.424;2022-08-23T08:14:27;101626.78;;;23.91;63.65
68580;BME280;55555;52.136;5.424;2022-08-23T08:16:54;101635.97;;;23.76;63.71
68580;BME280;55555;52.136;5.424;2022-08-23T08:19:24;101636.88;;;24.01;62.89
68580;BME280;55555;52.136;5.424;2022-08-23T08:21:51;101636.63;;;23.97;62.92
68580;BME280;55555;52.136;5.424;2022-08-23T08:24:18;101640.34;;;23.83;62.79
68580;BME280;55555;52.136;5.424;2022-08-23T08:26:45;101637.03;;;23.81;61.53
68580;BME280;55555;52.136;5.424;2022-08-23T08:29:13;101631.69;;;23.94;61.83
68580;BME280;55555;52.136;5.424;2022-08-23T08:31:42;101633.09;;;23.92;61.44
68580;BME280;55555;52.136;5.424;2022-08-23T08:34:10;101630.59;;;23.95;63.45
68580;BME280;55555;52.136;5.424;2022-08-23T08:36:44;101634.53;;;23.84;62.19
68580;BME280;55555;52.136;5.424;2022-08-23T08:39:19;101641.31;;;23.97;62.37
68580;BME280;55555;52.136;5.424;2022-08-23T08:47:07;101643.91;;;24.56;61.45
68580;BME280;55555;52.136;5.424;2022-08-23T08:52:26;101643.09;;;24.85;63.85
68580;BME280;55555;52.136;5.424;2022-08-23T08:55:21;101641.88;;;24.96;64.05
68580;BME280;55555;52.136;5.424;2022-08-23T08:57:51;101638.88;;;24.92;61.79
68580;BME280;55555;52.136;5.424;2022-08-23T09:00:26;101648.41;;;25.05;60.94
68580;BME280;55555;52.136;5.424;2022-08-23T09:02:58;101646.66;;;25.14;61.45
68580;BME280;55555;52.136;5.424;2022-08-23T09:05:30;101643.41;;;25.07;63.33
68580;BME280;55555;52.136;5.424;2022-08-23T09:11:40;101653.06;;;25.33;60.54
68580;BME280;55555;52.136;5.424;2022-08-23T09:14:46;101644.94;;;25.61;59.85
68580;BME280;55555;52.136;5.424;2022-08-23T09:17:23;101643.91;;;25.99;63.88
68580;BME280;55555;52.136;5.424;2022-08-23T09:19:58;101646.41;;;26.15;64.07
68580;BME280;55555;52.136;5.424;2022-08-23T09:22:36;101649.38;;;26.18;61.06
68580;BME280;55555;52.136;5.424;2022-08-23T09:25:09;101647.97;;;26.40;57.36
68580;BME280;55555;52.136;5.424;2022-08-23T09:27:39;101646.53;;;26.42;58.48
68580;BME280;55555;52.136;5.424;2022-08-23T09:30:11;101648.03;;;26.67;56.91
68580;BME280;55555;52.136;5.424;2022-08-23T09:32:43;101653.34;;;27.23;57.62
68580;BME280;55555;52.136;5.424;2022-08-23T09:35:21;101650.28;;;26.97;57.30
68580;BME280;55555;52.136;5.424;2022-08-23T09:40:48;101650.66;;;27.18;58.68
68580;BME280;55555;52.136;5.424;2022-08-23T09:43:24;101653.44;;;27.04;57.13
68580;BME280;55555;52.136;5.424;2022-08-23T09:48:34;101640.63;;;27.22;55.63
68580;BME280;55555;52.136;5.424;2022-08-23T09:51:21;101643.81;;;27.29;57.70
68580;BME280;55555;52.136;5.424;2022-08-23T09:54:10;101640.72;;;27.45;56.51
68580;BME280;55555;52.136;5.424;2022-08-23T09:56:54;101635.97;;;27.73;55.40
68580;BME280;55555;52.136;5.424;2022-08-23T09:59:47;101634.22;;;28.35;55.90
68580;BME280;55555;52.136;5.424;2022-08-23T10:02:27;101630.06;;;28.46;53.89
68580;BME280;55555;52.136;5.424;2022-08-23T10:07:58;101634.94;;;29.51;51.02
68580;BME280;55555;52.136;5.424;2022-08-23T10:10:30;101634.78;;;29.47;49.67
68580;BME280;55555;52.136;5.424;2022-08-23T10:13:17;101633.50;;;29.96;48.74
68580;BME280;55555;52.136;5.424;2022-08-23T10:27:27;101624.34;;;30.30;46.70
68580;BME280;55555;52.136;5.424;2022-08-23T10:33:45;101621.59;;;30.05;46.75
68580;BME280;55555;52.136;5.424;2022-08-23T10:36:32;101623.22;;;30.23;46.96
68580;BME280;55555;52.136;5.424;2022-08-23T10:39:15;101623.03;;;29.93;45.63
68580;BME280;55555;52.136;5.424;2022-08-23T10:45:02;101625.59;;;28.90;48.31
68580;BME280;55555;52.136;5.424;2022-08-23T10:50:53;101616.47;;;28.98;48.73
68580;BME280;55555;52.136;5.424;2022-08-23T10:53:35;101614.06;;;29.62;47.42
68580;BME280;55555;52.136;5.424;2022-08-23T10:56:14;101610.78;;;29.51;46.82
68580;BME280;55555;52.136;5.424;2022-08-23T10:58:51;101604.56;;;29.89;47.31
68580;BME280;55555;52.136;5.424;2022-08-23T11:01:58;101609.50;;;30.09;46.50
68580;BME280;55555;52.136;5.424;2022-08-23T11:04:49;101602.25;;;30.34;46.15
68580;BME280;55555;52.136;5.424;2022-08-23T11:07:26;101607.78;;;30.51;47.75
68580;BME280;55555;52.136;5.424;2022-08-23T11:10:07;101607.13;;;30.54;43.82
68580;BME280;55555;52.136;5.424;2022-08-23T11:12:52;101611.88;;;30.63;42.00
68580;BME280;55555;52.136;5.424;2022-08-23T11:15:54;101614.31;;;31.02;43.97
68580;BME280;55555;52.136;5.424;2022-08-23T11:18:48;101608.13;;;30.58;43.26
68580;BME280;55555;52.136;5.424;2022-08-23T11:28:54;101617.31;;;30.24;41.82
68580;BME280;55555;52.136;5.424;2022-08-23T11:32:21;101617.16;;;30.21;43.76
68580;BME280;55555;52.136;5.424;2022-08-23T11:35:05;101608.75;;;30.55;45.83
68580;BME280;55555;52.136;5.424;2022-08-23T11:38:07;101618.84;;;30.77;43.13
68580;BME280;55555;52.136;5.424;2022-08-23T11:43:37;101616.00;;;30.39;41.13
68580;BME280;55555;52.136;5.424;2022-08-23T11:52:02;101618.19;;;30.72;41.96
68580;BME280;55555;52.136;5.424;2022-08-23T11:57:50;101619.41;;;30.62;43.09
68580;BME280;55555;52.136;5.424;2022-08-23T12:00:53;101616.16;;;30.34;42.90
68580;BME280;55555;52.136;5.424;2022-08-23T12:23:00;101616.00;;;29.53;42.07
68580;BME280;55555;52.136;5.424;2022-08-23T12:25:40;101624.75;;;29.38;45.12
68580;BME280;55555;52.136;5.424;2022-08-23T12:28:39;101618.38;;;29.37;43.69
68580;BME280;55555;52.136;5.424;2022-08-23T12:40:21;101625.47;;;29.69;44.82
68580;BME280;55555;52.136;5.424;2022-08-23T12:43:38;101626.44;;;29.47;45.81
68580;BME280;55555;52.136;5.424;2022-08-23T12:45:59;101624.88;;;29.24;45.14
68580;BME280;55555;52.136;5.424;2022-08-23T12:48:31;101621.31;;;28.84;46.43
68580;BME280;55555;52.136;5.424;2022-08-23T12:51:08;101619.25;;;28.98;44.55
68580;BME280;55555;52.136;5.424;2022-08-23T12:53:41;101616.47;;;28.98;44.66
68580;BME280;55555;52.136;5.424;2022-08-23T12:56:28;101616.13;;;28.91;43.61
68580;BME280;55555;52.136;5.424;2022-08-23T12:59:00;101617.94;;;28.95;45.46
68580;BME280;55555;52.136;5.424;2022-08-23T13:01:33;101618.78;;;29.05;44.97
68580;BME280;55555;52.136;5.424;2022-08-23T13:04:09;101619.47;;;29.19;46.17
68580;BME280;55555;52.136;5.424;2022-08-23T13:06:57;101622.47;;;28.60;43.84
68580;BME280;55555;52.136;5.424;2022-08-23T13:09:33;101622.94;;;28.85;44.79
68580;BME280;55555;52.136;5.424;2022-08-23T13:12:05;101623.59;;;28.82;43.89
68580;BME280;55555;52.136;5.424;2022-08-23T13:17:31;101621.22;;;28.97;46.27
68580;BME280;55555;52.136;5.424;2022-08-23T13:20:20;101610.81;;;29.20;45.44
68580;BME280;55555;52.136;5.424;2022-08-23T13:23:05;101613.47;;;28.55;46.77
68580;BME280;55555;52.136;5.424;2022-08-23T13:25:38;101615.16;;;28.95;45.71
68580;BME280;55555;52.136;5.424;2022-08-23T13:28:28;101606.16;;;28.90;44.18
68580;BME280;55555;52.136;5.424;2022-08-23T13:33:30;101611.41;;;28.91;45.38
68580;BME280;55555;52.136;5.424;2022-08-23T13:36:19;101608.34;;;29.02;43.25
68580;BME280;55555;52.136;5.424;2022-08-23T13:38:47;101608.31;;;28.93;44.46
68580;BME280;55555;52.136;5.424;2022-08-23T13:41:32;101603.78;;;28.75;43.84
68580;BME280;55555;52.136;5.424;2022-08-23T13:44:06;101604.28;;;28.77;45.18
68580;BME280;55555;52.136;5.424;2022-08-23T13:46:42;101605.56;;;28.71;45.55
68580;BME280;55555;52.136;5.424;2022-08-23T13:49:17;101601.28;;;28.33;46.77
68580;BME280;55555;52.136;5.424;2022-08-23T13:54:46;101606.56;;;28.44;46.74
68580;BME280;55555;52.136;5.424;2022-08-23T13:57:18;101599.56;;;28.46;47.47
68580;BME280;55555;52.136;5.424;2022-08-23T13:59:51;101596.03;;;28.54;45.69
68580;BME280;55555;52.136;5.424;2022-08-23T14:02:21;101597.38;;;28.65;45.25
68580;BME280;55555;52.136;5.424;2022-08-23T14:04:49;101598.88;;;28.72;46.11
68580;BME280;55555;52.136;5.424;2022-08-23T14:07:16;101590.34;;;28.59;44.94
68580;BME280;55555;52.136;5.424;2022-08-23T14:09:44;101596.16;;;28.49;44.37
68580;BME280;55555;52.136;5.424;2022-08-23T14:12:17;101592.25;;;28.50;43.49
68580;BME280;55555;52.136;5.424;2022-08-23T14:14:47;101592.66;;;28.35;45.77
68580;BME280;55555;52.136;5.424;2022-08-23T14:17:14;101588.69;;;28.27;45.71
68580;BME280;55555;52.136;5.424;2022-08-23T14:19:45;101592.91;;;28.25;45.58
68580;BME280;55555;52.136;5.424;2022-08-23T14:22:34;101582.38;;;28.36;46.17
68580;BME280;55555;52.136;5.424;2022-08-23T14:25:01;101586.34;;;28.43;45.38
68580;BME280;55555;52.136;5.424;2022-08-23T14:27:29;101584.06;;;28.45;46.54
68580;BME280;55555;52.136;5.424;2022-08-23T14:29:56;101575.75;;;28.45;44.19
68580;BME280;55555;52.136;5.424;2022-08-23T14:32:23;101586.03;;;28.45;45.60
68580;BME280;55555;52.136;5.424;2022-08-23T14:34:50;101584.75;;;28.51;46.76
68580;BME280;55555;52.136;5.424;2022-08-23T14:37:17;101583.56;;;28.43;45.86
68580;BME280;55555;52.136;5.424;2022-08-23T14:40:05;101589.50;;;28.28;45.34
68580;BME280;55555;52.136;5.424;2022-08-23T14:42:34;101582.31;;;28.27;44.96
68580;BME280;55555;52.136;5.424;2022-08-23T14:45:01;101581.56;;;28.35;45.97
68580;BME280;55555;52.136;5.424;2022-08-23T14:47:29;101581.50;;;28.04;44.67
68580;BME280;55555;52.136;5.424;2022-08-23T14:49:56;101579.56;;;28.27;46.60
68580;BME280;55555;52.136;5.424;2022-08-23T14:52:23;101581.38;;;28.31;46.18
68580;BME280;55555;52.136;5.424;2022-08-23T14:54:50;101578.28;;;28.33;44.74
68580;BME280;55555;52.136;5.424;2022-08-23T14:57:17;101584.66;;;28.33;46.12
68580;BME280;55555;52.136;5.424;2022-08-23T14:59:44;101590.63;;;28.27;44.44
68580;BME280;55555;52.136;5.424;2022-08-23T15:02:12;101585.28;;;28.30;44.67
68580;BME280;55555;52.136;5.424;2022-08-23T15:04:44;101575.06;;;28.40;45.23
68580;BME280;55555;52.136;5.424;2022-08-23T15:07:11;101571.06;;;28.23;45.88
68580;BME280;55555;52.136;5.424;2022-08-23T15:09:47;101586.09;;;28.31;48.01